Latest Weather Observations for Coldstream

IDV60801

Issued at 12:05 pm EST Thursday 2 October 2014 (issued every 30 minutes, with the page automatically refreshed every 10 minutes)

About weather observations | Map of weather stations | Latest weather observations for VIC | Other Formats
Station Details ID: 086383 Name: COLDSTREAM Lat: -37.72 Lon: 145.41 Height: 83.0 m
Data from the previous 72 hours. | See also: Recent months at Coldstream
Date/Time
EST
Temp
°C
App
Temp
°C
Dew
Point
Rel
Hum
%
Delta-T
°C
Wind Press
QNH
hPa
Press
MSL
hPa
Rain
since 9 am
mm
Dir
 
Spd
km/h
Gust
km/h
Spd
kts
Gust
kts
02/12:00pm 12.9 11.2 8.4 74 2.2 NNW 7 11 4 6 1024.3 1024.4 0.0
02/11:30am 12.8 11.6 9.4 80 1.7 NW 6 11 3 6 1024.6 1024.7 0.0
02/11:00am 12.3 11.0 9.3 82 1.5 NNW 6 9 3 5 1024.7 1024.8 0.0
02/10:30am 11.6 10.0 8.6 82 1.5 NW 7 11 4 6 1025.0 1025.1 0.0
02/10:00am 11.5 11.1 9.6 88 1.0 NNE 2 6 1 3 1025.0 1025.1 0.0
02/09:30am 11.1 9.7 9.0 87 1.0 N 6 9 3 5 1025.1 1025.2 0.0
02/09:00am 10.4 8.9 9.0 91 0.7 ENE 7 13 4 7 1024.8 1024.9 0.2
02/08:30am 9.7 8.4 9.1 96 0.3 N 6 11 3 6 1024.8 1024.9 0.2
02/08:00am 9.6 8.3 9.1 97 0.2 N 6 9 3 5 1024.6 1024.7 0.2
02/07:30am 9.2 7.6 8.7 97 0.2 N 7 11 4 6 1024.5 1024.6 0.2
02/07:00am 8.7 6.6 8.3 97 0.2 NNE 9 15 5 8 1024.3 1024.4 0.2
02/06:30am 8.6 6.9 8.2 97 0.2 NNE 7 13 4 7 1024.3 1024.4 0.2
02/06:00am 8.5 8.0 7.7 95 0.4 N 0 6 0 3 1024.2 1024.3 0.2
02/05:30am 8.4 7.4 7.5 94 0.4 NNW 2 6 1 3 1024.1 1024.2 0.0
02/05:00am 8.2 7.6 7.4 95 0.4 CALM 0 0 0 0 1024.0 1024.1 0.0
02/04:30am 8.1 7.1 7.5 96 0.3 SSW 2 7 1 4 1024.1 1024.2 0.0
02/04:00am 7.8 7.2 7.5 98 0.1 CALM 0 0 0 0 1023.8 1023.8 0.0
02/03:30am 7.6 7.0 7.5 99 0.0 CALM 0 0 0 0 1024.0 1024.1 0.0
02/03:00am 7.3 6.7 7.2 99 0.0 CALM 0 0 0 0 1024.2 1024.3 0.0
02/02:30am 6.8 6.0 6.7 99 0.0 CALM 0 0 0 0 1024.5 1024.6 0.0
02/02:00am 6.2 5.3 6.1 99 0.0 CALM 0 0 0 0 1024.8 1024.9 0.0
02/01:30am 5.4 4.3 5.3 99 0.0 CALM 0 0 0 0 1024.9 1025.0 0.0
02/01:00am 3.6 2.2 3.3 98 0.1 CALM 0 0 0 0 1025.1 1025.2 0.0
02/12:30am 4.2 2.9 3.9 98 0.1 CALM 0 0 0 0 1025.1 1025.2 0.0
02/12:00am 4.7 3.4 4.1 96 0.3 SSW 0 0 0 0 1025.2 1025.3 0.0
 
Date/Time
EST
Temp
°C
App
Temp
°C
Dew
Point
Rel
Hum
%
Delta-T
°C
Wind Press
QNH
hPa
Press
MSL
hPa
Rain
since 9 am
mm
Dir
 
Spd
km/h
Gust
km/h
Spd
kts
Gust
kts
01/11:30pm 5.3 4.1 4.7 96 0.3 CALM 0 0 0 0 1025.3 1025.4 0.0
01/11:00pm 6.3 5.3 5.7 96 0.3 CALM 0 0 0 0 1025.5 1025.6 0.0
01/10:30pm 6.3 5.3 5.4 94 0.4 CALM 0 0 0 0 1025.6 1025.7 0.0
01/10:00pm 7.5 6.7 6.6 94 0.4 CALM 0 0 0 0 1025.6 1025.7 0.0
01/09:30pm 8.4 7.8 7.5 94 0.4 CALM 0 6 0 3 1025.5 1025.6 0.0
01/09:00pm 8.6 8.1 7.7 94 0.4 CALM 0 0 0 0 1025.4 1025.5 0.0
01/08:30pm 7.6 6.8 6.4 92 0.6 CALM 0 0 0 0 1025.4 1025.5 0.0
01/08:00pm 8.2 7.5 6.8 91 0.6 CALM 0 0 0 0 1025.2 1025.3 0.0
01/07:30pm 8.6 7.7 6.2 85 1.1 CALM 0 0 0 0 1024.9 1025.0 0.0
01/07:00pm 10.3 9.0 6.1 75 1.9 SSW 2 6 1 3 1024.5 1024.6 0.0
01/06:30pm 11.3 9.2 6.0 70 2.5 S 6 9 3 5 1024.4 1024.5 0.0
01/06:00pm 12.2 10.1 6.0 66 2.9 S 6 9 3 5 1024.1 1024.2 0.0
01/05:30pm 12.5 9.8 5.7 63 3.2 SSW 9 13 5 7 1024.1 1024.2 0.0
01/05:00pm 12.7 9.6 5.6 62 3.3 SW 11 19 6 10 1023.9 1023.9 0.0
01/04:30pm 12.9 8.8 6.0 63 3.3 SW 17 26 9 14 1023.8 1023.8 0.0
01/04:00pm 12.9 9.4 5.6 61 3.4 SW 13 20 7 11 1023.9 1023.9 0.0
01/03:30pm 12.9 8.2 5.3 60 3.5 SW 19 30 10 16 1023.8 1023.8 0.0
01/03:00pm 13.6 9.2 4.5 54 4.2 WSW 17 28 9 15 1023.4 1023.4 0.0
01/02:30pm 13.8 10.2 4.9 55 4.2 SSW 13 24 7 13 1023.4 1023.4 0.0
01/02:00pm 13.4 9.4 4.8 56 4.0 S 15 22 8 12 1023.4 1023.4 0.0
01/01:30pm 14.4 10.5 5.5 55 4.2 SSW 15 28 8 15 1023.8 1023.8 0.0
01/01:00pm 13.3 8.3 4.5 55 4.0 SW 20 32 11 17 1024.0 1024.1 0.0
01/12:30pm 13.2 8.6 5.6 60 3.6 SW 19 28 10 15 1023.8 1023.8 0.0
01/12:00pm 13.5 10.1 5.9 60 3.6 SW 13 22 7 12 1023.8 1023.8 0.0
01/11:30am 13.1 9.5 4.8 57 3.8 SW 13 22 7 12 1023.9 1023.9 0.0
01/11:00am 11.1 9.3 7.0 76 1.9 SW 6 9 3 5 1024.0 1024.1 0.0
01/10:30am 11.4 10.1 5.9 69 2.6 SE 2 9 1 5 1023.8 1023.8 0.0
01/10:00am 10.9 8.4 6.5 74 2.1 W 9 17 5 9 1023.9 1023.9 0.0
01/09:30am 10.1 6.9 4.9 70 2.4 W 11 15 6 8 1023.7 1023.8 0.0
01/09:00am 9.6 7.5 6.5 81 1.4 WNW 7 11 4 6 1023.3 1023.4 5.0
01/08:30am 8.4 5.5 4.8 78 1.6 NW 9 13 5 7 1022.9 1023.0 5.0
01/08:00am 8.1 6.2 4.7 79 1.5 NNW 4 11 2 6 1022.5 1022.6 4.8
01/07:30am 6.9 5.6 4.2 83 1.2 CALM 0 0 0 0 1021.9 1022.0 4.8
01/07:00am 6.2 4.2 4.4 88 0.8 NNW 4 9 2 5 1021.5 1021.6 4.8
01/06:30am 5.3 3.2 4.1 92 0.5 N 4 7 2 4 1021.1 1021.2 4.8
01/06:00am 5.2 3.9 3.9 91 0.5 CALM 0 0 0 0 1020.5 1020.6 4.8
01/05:30am 4.9 2.4 3.9 93 0.4 NNE 6 7 3 4 1019.8 1019.9 4.8
01/05:00am 4.7 2.1 3.4 91 0.5 N 6 9 3 5 1019.3 1019.4 4.8
01/04:30am 5.4 3.6 3.7 89 0.7 N 2 7 1 4 1018.9 1019.0 4.8
01/04:00am 5.4 2.8 3.3 86 0.9 WNW 6 7 3 4 1018.5 1018.6 4.6
01/03:30am 5.0 2.2 3.0 87 0.8 W 7 11 4 6 1018.1 1018.1 4.6
01/03:00am 5.6 2.8 3.3 85 1.0 W 7 13 4 7 1017.7 1017.7 4.6
01/02:30am 5.7 2.1 3.0 83 1.1 W 11 15 6 8 1017.4 1017.4 4.6
01/02:00am 6.5 2.6 3.5 81 1.3 W 13 19 7 10 1017.0 1017.0 4.6
01/01:30am 6.9 2.6 3.3 78 1.5 W 15 22 8 12 1016.7 1016.7 4.6
01/01:00am 7.0 3.1 3.3 77 1.6 W 13 20 7 11 1016.4 1016.4 4.6
01/12:30am 7.7 3.8 3.2 73 1.9 W 13 20 7 11 1016.2 1016.2 4.6
01/12:00am 8.3 3.5 2.8 68 2.3 WNW 17 30 9 16 1015.7 1015.7 4.6
 
Date/Time
EST
Temp
°C
App
Temp
°C
Dew
Point
Rel
Hum
%
Delta-T
°C
Wind Press
QNH
hPa
Press
MSL
hPa
Rain
since 9 am
mm
Dir
 
Spd
km/h
Gust
km/h
Spd
kts
Gust
kts
30/11:30pm 8.4 3.7 3.1 69 2.3 WNW 17 30 9 16 1015.5 1015.5 4.6
30/11:00pm 8.1 4.6 3.6 73 1.9 NW 11 17 6 9 1015.1 1015.1 4.6
30/10:30pm 8.1 4.7 3.9 75 1.8 NW 11 19 6 10 1014.6 1014.6 4.6
30/10:00pm 8.1 5.1 4.3 77 1.7 NNW 9 13 5 7 1014.3 1014.3 4.6
30/09:30pm 8.6 6.0 4.4 75 1.9 WNW 7 11 4 6 1014.1 1014.1 4.6
30/09:00pm 9.0 7.5 5.0 76 1.8 W 2 11 1 6 1013.8 1013.9 4.6
30/08:30pm 9.9 6.3 4.9 71 2.3 WNW 13 20 7 11 1013.4 1013.5 4.6
30/08:00pm 9.2 7.4 5.6 78 1.6 WSW 4 17 2 9 1013.2 1013.3 4.6
30/07:30pm 9.3 7.7 6.2 81 1.4 WNW 4 7 2 4 1012.5 1012.6 4.6
30/07:00pm 10.1 6.7 5.7 74 2.0 WNW 13 20 7 11 1011.6 1011.7 4.6
30/06:30pm 9.6 7.0 6.0 78 1.7 NW 9 13 5 7 1011.2 1011.3 4.6
30/06:00pm 9.4 6.1 6.3 81 1.4 NW 13 20 7 11 1011.2 1011.3 4.6
30/05:30pm 9.0 4.8 5.9 81 1.4 WNW 17 26 9 14 1010.9 1011.0 4.6
30/05:00pm 8.9 1.3 6.0 82 1.3 W 35 43 19 23 1010.5 1010.6 4.2
30/04:59pm 8.8 0.8 5.9 82 1.3 W 37 43 20 23 1010.4 1010.5 4.2
30/04:30pm 10.0 0.9 8.4 90 0.8 WSW 46 76 25 41 1009.1 1009.2 3.4
30/04:27pm 9.9 0.4 8.3 90 0.8 WSW 48 76 26 41 1008.9 1009.0 3.4
30/04:02pm 12.2 4.0 10.4 89 0.9 WSW 44 70 24 38 1006.9 1006.9 1.4
30/04:00pm 12.4 4.2 10.5 88 1.0 WSW 44 61 24 33 1006.6 1006.6 1.4
30/03:45pm 13.5 3.8 10.5 82 1.6 WSW 52 76 28 41 1005.5 1005.5 0.0
30/03:34pm 18.5 8.3 7.0 47 5.8 W 50 76 27 41 1004.4 1004.4 0.0
30/03:30pm 21.4 14.1 5.3 35 8.0 NW 33 52 18 28 1003.3 1003.3 0.0
30/03:00pm 21.7 14.8 6.4 37 7.8 NW 32 54 17 29 1002.9 1002.9 0.0
30/02:30pm 20.4 14.5 9.0 48 6.0 NNW 30 54 16 29 1002.9 1002.9 0.0
30/02:06pm 21.5 15.6 9.1 45 6.6 NNW 30 48 16 26 1003.1 1003.1 0.0
30/02:00pm 21.7 16.3 9.6 46 6.6 N 28 43 15 23 1003.3 1003.3 0.0
30/01:30pm 21.0 14.0 8.6 45 6.5 NNW 35 57 19 31 1004.3 1004.3 0.0
30/01:11pm 20.1 14.3 9.4 50 5.7 N 30 48 16 26 1004.8 1004.8 0.0
30/01:00pm 20.2 14.2 8.5 47 6.2 N 30 44 16 24 1005.0 1005.0 0.0
30/12:30pm 19.8 11.8 7.5 45 6.3 N 39 57 21 31 1006.0 1006.0 0.0
30/12:00pm 19.5 15.9 9.7 53 5.2 NNW 19 30 10 16 1006.2 1006.2 0.0
30/11:41am 19.5 14.3 10.2 55 5.0 N 28 46 15 25 1006.6 1006.6 0.0
30/11:30am 19.7 13.4 9.0 50 5.6 N 32 44 17 24 1006.6 1006.6 0.0
30/11:00am 19.9 14.6 10.0 53 5.3 N 28 43 15 23 1007.1 1007.1 0.0
30/10:30am 19.3 14.2 10.6 57 4.7 N 28 46 15 25 1007.8 1007.8 0.0
30/10:00am 18.3 12.7 10.2 59 4.3 N 30 48 16 26 1008.5 1008.6 0.0
30/09:59am 18.4 13.1 10.0 58 4.5 N 28 48 15 26 1008.6 1008.7 0.0
30/09:30am 17.6 12.9 10.5 63 3.8 N 26 41 14 22 1009.5 1009.6 0.0
30/09:00am 17.1 11.6 9.3 60 4.1 N 28 39 15 21 1009.9 1010.0 0.0
30/08:30am 16.3 11.3 9.5 64 3.5 N 26 35 14 19 1010.2 1010.3 0.0
30/08:00am 15.4 11.4 8.9 65 3.3 N 20 30 11 16 1010.6 1010.7 0.0
30/07:30am 14.8 11.3 8.7 67 3.1 N 17 24 9 13 1010.7 1010.8 0.0
30/07:00am 14.0 9.5 8.6 70 2.7 N 22 33 12 18 1010.6 1010.7 0.0
30/06:30am 13.9 10.3 8.5 70 2.7 N 17 32 9 17 1010.6 1010.7 0.0
30/06:00am 13.5 10.6 8.1 70 2.7 NNW 13 19 7 10 1010.4 1010.5 0.0
30/05:30am 13.3 10.8 8.2 71 2.5 N 11 19 6 10 1009.8 1009.9 0.0
30/05:00am 13.7 10.8 8.1 69 2.8 N 13 20 7 11 1009.3 1009.4 0.0
30/04:30am 13.1 11.3 8.0 71 2.5 N 7 11 4 6 1009.2 1009.3 0.0
30/04:00am 13.6 11.1 8.4 71 2.6 NW 11 15 6 8 1009.5 1009.6 0.0
30/03:30am 12.4 10.8 8.1 75 2.1 NW 6 13 3 7 1009.3 1009.4 0.0
30/03:00am 12.9 10.7 8.0 72 2.4 NNW 9 13 5 7 1009.5 1009.6 0.0
30/02:30am 14.0 12.3 8.4 69 2.8 N 7 13 4 7 1009.8 1009.9 0.0
30/02:00am 14.4 11.8 9.2 71 2.7 N 13 17 7 9 1010.4 1010.5 0.0
30/01:30am 14.6 11.9 9.0 69 2.9 N 13 20 7 11 1010.7 1010.8 0.0
30/01:00am 14.9 11.9 9.3 69 2.9 N 15 20 8 11 1011.4 1011.5 0.0
30/12:30am 14.9 12.4 9.7 71 2.7 N 13 17 7 9 1011.7 1011.8 0.0
30/12:00am 15.1 13.0 9.7 70 2.8 N 11 17 6 9 1012.0 1012.1 0.0
 
Date/Time
EST
Temp
°C
App
Temp
°C
Dew
Point
Rel
Hum
%
Delta-T
°C
Wind Press
QNH
hPa
Press
MSL
hPa
Rain
since 9 am
mm
Dir
 
Spd
km/h
Gust
km/h
Spd
kts
Gust
kts
29/11:30pm 13.8 11.5 9.0 73 2.4 N 11 17 6 9 1012.4 1012.5 0.0
29/11:00pm 12.6 10.7 8.9 78 1.9 N 9 13 5 7 1012.6 1012.7 0.0
29/10:30pm 12.6 10.6 8.7 77 2.0 N 9 13 5 7 1012.7 1012.8 0.0
29/10:00pm 14.3 12.4 8.9 70 2.7 N 9 15 5 8 1012.7 1012.8 0.0
29/09:30pm 14.8 11.7 9.0 68 3.0 N 15 20 8 11 1012.7 1012.8 0.0
29/09:00pm 15.1 12.4 9.0 67 3.1 N 13 17 7 9 1012.7 1012.8 0.0
29/08:30pm 15.5 12.8 9.0 65 3.3 N 13 17 7 9 1012.6 1012.7 0.0
29/08:00pm 15.3 13.0 9.0 66 3.2 N 11 17 6 9 1012.5 1012.6 0.0
29/07:30pm 14.8 12.6 9.2 69 2.9 N 11 15 6 8 1012.3 1012.4 0.0
29/07:00pm 15.2 13.3 9.1 67 3.1 N 9 15 5 8 1012.2 1012.3 0.0
29/06:30pm 16.9 14.2 9.1 60 4.1 N 13 24 7 13 1012.0 1012.1 0.0
29/06:00pm 17.9 14.5 9.3 57 4.5 N 17 24 9 13 1012.0 1012.1 0.0
29/05:30pm 18.9 15.0 9.4 54 5.0 N 20 28 11 15 1011.8 1011.9 0.0
29/05:00pm 19.5 15.0 8.5 49 5.7 N 22 35 12 19 1011.6 1011.7 0.0
29/04:30pm 20.1 14.7 8.1 46 6.2 N 26 39 14 21 1011.3 1011.4 0.0
29/04:00pm 20.8 16.0 8.8 46 6.4 N 24 35 13 19 1011.3 1011.4 0.0
29/03:30pm 20.8 15.8 9.4 48 6.1 N 26 41 14 22 1011.2 1011.3 0.0
29/03:00pm 21.0 16.2 8.9 46 6.4 N 24 43 13 23 1011.2 1011.3 0.0
29/02:30pm 21.0 15.3 8.3 44 6.7 N 28 44 15 24 1011.2 1011.3 0.0
29/02:00pm 20.7 15.8 8.4 45 6.5 N 24 35 13 19 1011.7 1011.8 0.0
29/01:30pm 20.6 15.9 9.2 48 6.1 N 24 35 13 19 1012.2 1012.3 0.0
29/01:00pm 20.1 15.7 8.8 48 6.0 N 22 35 12 19 1012.5 1012.6 0.0
29/12:30pm 20.0 16.0 9.0 49 5.8 N 20 35 11 19 1012.7 1012.8 0.0

Other Formats:

Comma delimited format used in spreadsheet applications
http://www.bom.gov.au/fwo/IDV60801/IDV60801.94864.axf

JavaScript Object Notation format (JSON) in row-major order
http://www.bom.gov.au/fwo/IDV60801/IDV60801.94864.json